aviador You're here:

KRBG Decoded Metar

ROSEBURG in OR, USA
Report Time2018-05-20 22:53:00
UTC Time2018-05-20 23:03:48
Flight Rules vfr VFR
WindCalm
Visibility9999 m
Phenomena:N/A
Clouds:Few 042 Hf
Expected CloudBase > 4,000 ft AGL from Temp-Dew spread
CeilingNone
Temp18°C (ISA +4)
Dew Point08°C (52% RH)
AAT17.5°C
QNH1016 hPa
Density Alt1,020 ft
Elevation505 ft
Report Wrong Elevation
Raw Report
KRBG 202253Z AUTO 00000KT 10SM FEW042 18/08 A3001 RMK AO2 SLP160
T01830083=

Extra information for KRBG:More info

Metar Taf Metar & Taf Last 4 Metars F.Rules Stats Wind Profile Meteogram Temp Stats Airport Information Weather charts Add Link Nearby VenuesMetar ALERT Operation Metar Decoded Social comments

AIRNAV info for KRBG